createdAt,value
2019-05-30T00:01:51.199Z,10.60
2019-05-30T00:04:25.008Z,3.90
2019-05-30T00:06:58.784Z,3.55
2019-05-30T00:09:32.669Z,4.25
2019-05-30T00:12:06.339Z,4.78
2019-05-30T00:14:40.227Z,4.10
2019-05-30T00:17:14.950Z,7.83
2019-05-30T00:19:48.627Z,6.20
2019-05-30T00:22:22.294Z,5.30
2019-05-30T00:24:56.041Z,5.87
2019-05-30T00:27:29.804Z,5.42
2019-05-30T00:30:03.643Z,4.87
2019-05-30T00:32:38.582Z,6.78
2019-05-30T00:35:12.807Z,5.50
2019-05-30T00:37:46.575Z,7.22
2019-05-30T00:40:20.361Z,6.00
2019-05-30T00:42:55.882Z,4.65
2019-05-30T00:45:29.682Z,5.58
2019-05-30T00:48:06.493Z,4.90
2019-05-30T00:50:40.285Z,5.08
2019-05-30T00:53:13.994Z,6.05
2019-05-30T00:55:47.793Z,8.08
2019-05-30T00:58:21.349Z,5.55
2019-05-30T01:00:55.181Z,5.25
2019-05-30T01:03:28.940Z,6.92
2019-05-30T01:06:02.987Z,6.75
2019-05-30T01:08:36.738Z,4.00
2019-05-30T01:11:11.540Z,4.65
2019-05-30T01:13:45.211Z,8.20
2019-05-30T01:16:18.990Z,8.83
2019-05-30T01:18:52.754Z,4.62
2019-05-30T01:21:27.491Z,5.10
2019-05-30T01:24:01.662Z,3.30
2019-05-30T01:26:35.451Z,6.58
2019-05-30T01:29:08.988Z,7.78
2019-05-30T01:31:43.023Z,4.83
2019-05-30T01:34:16.797Z,6.28
2019-05-30T01:36:50.561Z,5.42
2019-05-30T01:39:24.164Z,5.87
2019-05-30T01:41:57.963Z,4.58
2019-05-30T01:44:33.029Z,6.87
2019-05-30T01:47:06.850Z,6.10
2019-05-30T01:49:40.841Z,6.10
2019-05-30T01:52:14.540Z,7.08
2019-05-30T01:54:48.917Z,5.92
2019-05-30T01:57:22.603Z,6.12
2019-05-30T01:59:56.279Z,6.47
2019-05-30T02:02:30.087Z,3.40
2019-05-30T02:05:05.018Z,11.08
2019-05-30T02:07:40.313Z,5.97
2019-05-30T02:10:16.157Z,8.65
2019-05-30T02:12:49.947Z,9.15
2019-05-30T02:15:23.649Z,5.62
2019-05-30T02:17:57.380Z,6.65
2019-05-30T02:20:31.127Z,6.28
2019-05-30T02:23:06.171Z,2.77
2019-05-30T02:25:42.244Z,8.08
2019-05-30T02:28:15.989Z,5.55
2019-05-30T02:30:52.934Z,5.55
2019-05-30T02:33:26.712Z,3.87
2019-05-30T02:36:01.267Z,4.50
2019-05-30T02:38:36.158Z,8.38
2019-05-30T02:41:10.476Z,12.35
2019-05-30T02:43:45.748Z,3.40
2019-05-30T02:46:19.391Z,6.22
2019-05-30T02:48:58.916Z,4.03
2019-05-30T02:51:29.508Z,7.12
2019-05-30T02:54:06.503Z,4.83
2019-05-30T02:56:40.543Z,6.67
2019-05-30T02:59:15.186Z,4.22
2019-05-30T03:02:00.688Z,8.18
2019-05-30T03:04:27.017Z,7.33
2019-05-30T03:07:01.981Z,10.08
2019-05-30T03:09:36.139Z,4.87
2019-05-30T03:12:11.394Z,5.17
2019-05-30T03:14:46.181Z,11.88
2019-05-30T03:17:20.367Z,6.33
2019-05-30T03:19:57.308Z,5.47
2019-05-30T03:22:31.193Z,6.00
2019-05-30T03:25:09.397Z,6.85
2019-05-30T03:27:41.679Z,4.08
2019-05-30T03:30:25.239Z,11.53
2019-05-30T03:33:19.302Z,7.47
2019-05-30T03:35:30.222Z,10.90
2019-05-30T03:38:03.326Z,7.12
2019-05-30T03:40:37.780Z,9.23
2019-05-30T03:43:13.196Z,9.53
2019-05-30T03:45:47.058Z,5.22
2019-05-30T03:48:26.510Z,8.78
2019-05-30T03:51:04.184Z,7.28
2019-05-30T03:53:37.786Z,7.97
2019-05-30T03:56:16.089Z,5.60
2019-05-30T03:59:18.029Z,5.92
2019-05-30T04:02:09.561Z,8.10
2019-05-30T04:05:02.807Z,6.92
2019-05-30T04:07:42.337Z,9.43
2019-05-30T04:10:20.599Z,5.22
2019-05-30T04:13:22.842Z,6.72
2019-05-30T04:15:56.593Z,12.25
2019-05-30T04:18:31.231Z,7.28
2019-05-30T04:21:05.027Z,5.30
2019-05-30T04:23:38.718Z,6.00
2019-05-30T04:26:13.637Z,9.38
2019-05-30T04:28:48.006Z,6.83
2019-05-30T04:31:21.879Z,7.90
2019-05-30T04:33:55.939Z,6.12
2019-05-30T04:36:29.668Z,6.08
2019-05-30T04:39:04.723Z,6.60
2019-05-30T04:41:38.920Z,6.42
2019-05-30T04:44:14.541Z,7.47
2019-05-30T04:46:48.139Z,4.87
2019-05-30T04:49:21.921Z,6.10
2019-05-30T04:51:55.740Z,7.03
2019-05-30T04:54:29.497Z,7.12
2019-05-30T04:57:03.089Z,3.62
2019-05-30T04:59:36.809Z,6.80
2019-05-30T05:02:11.585Z,4.47
2019-05-30T05:04:46.393Z,4.00
2019-05-30T05:07:20.124Z,5.80
2019-05-30T05:09:55.453Z,3.87
2019-05-30T05:12:31.661Z,7.22
2019-05-30T05:15:06.647Z,4.65
2019-05-30T05:17:40.329Z,6.97
2019-05-30T05:20:15.249Z,5.72
2019-05-30T05:22:49.098Z,5.53
2019-05-30T05:25:23.581Z,5.65
2019-05-30T05:27:57.468Z,4.58
2019-05-30T05:34:00.262Z,7.37
2019-05-30T05:39:39.109Z,6.87
2019-05-30T05:42:12.886Z,6.53
2019-05-30T05:44:46.830Z,4.60
2019-05-30T05:47:20.537Z,8.90
2019-05-30T05:49:54.754Z,5.67
2019-05-30T05:52:29.126Z,6.62
2019-05-30T05:55:03.569Z,7.95
2019-05-30T05:57:37.332Z,5.78
2019-05-30T06:00:12.079Z,6.83
2019-05-30T06:02:46.895Z,4.03
2019-05-30T06:05:22.178Z,5.92
2019-05-30T06:07:56.145Z,7.28
2019-05-30T06:10:29.959Z,3.67
2019-05-30T06:13:04.861Z,6.78
2019-05-30T06:15:38.748Z,7.10
2019-05-30T06:18:12.795Z,6.28
2019-05-30T06:20:46.498Z,5.75
2019-05-30T06:23:21.469Z,8.20
2019-05-30T06:25:55.359Z,9.40
2019-05-30T06:28:29.702Z,5.75
2019-05-30T06:31:03.920Z,6.62
2019-05-30T06:33:38.197Z,6.28
2019-05-30T06:36:12.668Z,7.92
2019-05-30T06:38:47.490Z,6.40
2019-05-30T06:41:21.470Z,3.55
2019-05-30T06:43:56.790Z,4.20
2019-05-30T06:46:33.046Z,4.87
2019-05-30T06:49:08.470Z,3.67
2019-05-30T06:51:42.162Z,2.58
2019-05-30T06:54:15.919Z,3.75
2019-05-30T06:56:49.632Z,2.47
2019-05-30T06:59:23.496Z,6.37
2019-05-30T07:01:57.340Z,2.65
2019-05-30T07:04:48.868Z,2.67
2019-05-30T07:07:06.809Z,4.17
2019-05-30T07:09:40.894Z,3.95
2019-05-30T07:12:14.711Z,2.50
2019-05-30T07:14:49.649Z,5.35
2019-05-30T07:17:25.086Z,6.67
2019-05-30T07:19:59.447Z,4.42
2019-05-30T07:22:38.779Z,2.67
2019-05-30T07:25:15.108Z,3.15
2019-05-30T07:27:51.069Z,2.52
2019-05-30T07:30:25.820Z,2.55
2019-05-30T07:32:59.729Z,2.98
2019-05-30T07:35:35.107Z,3.58
2019-05-30T07:38:09.728Z,1.75
2019-05-30T07:40:45.299Z,3.25
2019-05-30T07:43:19.171Z,6.95
2019-05-30T07:45:58.198Z,5.53
2019-05-30T07:51:09.406Z,6.17
2019-05-30T07:53:43.515Z,5.53
2019-05-30T07:56:17.778Z,5.70
2019-05-30T07:58:51.677Z,5.67
2019-05-30T08:01:26.326Z,5.10
2019-05-30T08:04:00.198Z,3.87
2019-05-30T08:06:33.936Z,3.30
2019-05-30T08:09:08.405Z,3.42
2019-05-30T08:11:44.039Z,3.85
2019-05-30T08:14:17.739Z,3.35
2019-05-30T08:16:51.502Z,2.70
2019-05-30T08:19:25.427Z,2.30
2019-05-30T08:22:04.269Z,6.00
2019-05-30T08:24:38.933Z,7.03
2019-05-30T08:27:12.781Z,4.17
2019-05-30T08:29:50.752Z,3.58
2019-05-30T08:32:24.518Z,11.40
2019-05-30T08:34:58.755Z,4.55
2019-05-30T08:37:33.152Z,5.95
2019-05-30T08:40:10.286Z,2.98
2019-05-30T08:42:52.951Z,4.00
2019-05-30T08:45:27.125Z,4.00
2019-05-30T08:48:04.502Z,4.58
2019-05-30T08:50:44.792Z,3.55
2019-05-30T08:53:19.337Z,5.67
2019-05-30T08:55:53.374Z,6.50
2019-05-30T08:58:30.326Z,4.50
2019-05-30T09:01:04.269Z,3.65
2019-05-30T09:03:38.435Z,2.33
2019-05-30T09:06:12.800Z,4.30
2019-05-30T09:08:46.581Z,4.78
2019-05-30T09:11:21.409Z,2.15
2019-05-30T09:13:55.131Z,3.27
2019-05-30T09:16:28.918Z,2.80
2019-05-30T09:19:02.679Z,2.65
2019-05-30T09:21:39.795Z,2.52
2019-05-30T09:24:14.010Z,10.32
2019-05-30T09:26:50.292Z,9.33
2019-05-30T09:29:23.570Z,4.08
2019-05-30T09:31:57.260Z,4.67
2019-05-30T09:34:30.948Z,4.78
2019-05-30T09:37:04.697Z,4.55
2019-05-30T09:39:41.588Z,3.75
2019-05-30T09:42:16.749Z,1.80
2019-05-30T09:44:52.161Z,5.78
2019-05-30T09:47:25.854Z,4.53
2019-05-30T09:49:59.541Z,3.55
2019-05-30T09:52:33.232Z,3.65
2019-05-30T09:55:10.119Z,12.03
2019-05-30T09:57:45.838Z,5.80
2019-05-30T10:00:22.825Z,5.33
2019-05-30T10:02:56.521Z,3.50
2019-05-30T10:05:30.314Z,3.83
2019-05-30T10:08:04.190Z,1.37
2019-05-30T10:10:37.960Z,4.62
2019-05-30T10:13:11.752Z,2.27
2019-05-30T10:15:46.691Z,3.92
2019-05-30T10:18:23.444Z,3.85
2019-05-30T10:20:57.149Z,9.23
2019-05-30T10:23:31.083Z,7.95
2019-05-30T10:26:07.227Z,4.83
2019-05-30T10:28:41.037Z,2.45
2019-05-30T10:31:14.771Z,4.15
2019-05-30T10:33:49.780Z,4.67
2019-05-30T10:36:25.867Z,4.03
2019-05-30T10:38:59.832Z,3.47
2019-05-30T10:41:33.608Z,2.85
2019-05-30T10:44:07.318Z,8.98
2019-05-30T10:46:40.974Z,7.17
2019-05-30T10:49:15.738Z,4.15
2019-05-30T10:51:49.647Z,4.60
2019-05-30T10:54:23.892Z,6.95
2019-05-30T10:56:57.639Z,3.27
2019-05-30T10:59:31.348Z,4.60
2019-05-30T11:02:05.209Z,5.53
2019-05-30T11:04:39.032Z,3.20
2019-05-30T11:07:18.097Z,2.35
2019-05-30T11:10:11.097Z,2.55
2019-05-30T11:12:44.969Z,3.58
2019-05-30T11:15:19.901Z,5.95
2019-05-30T11:17:54.811Z,3.45
2019-05-30T11:20:29.394Z,2.55
2019-05-30T11:23:03.188Z,4.08
2019-05-30T11:25:37.110Z,5.42
2019-05-30T11:28:11.639Z,5.55
2019-05-30T11:30:45.459Z,4.95
2019-05-30T11:33:19.146Z,5.03
2019-05-30T11:35:53.699Z,3.42
2019-05-30T11:38:27.430Z,3.33
2019-05-30T11:41:01.068Z,4.30
2019-05-30T11:43:34.890Z,8.13
2019-05-30T11:46:08.750Z,3.27
2019-05-30T11:48:42.473Z,4.20
2019-05-30T11:51:16.252Z,3.70
2019-05-30T11:53:53.785Z,5.50
2019-05-30T11:56:27.563Z,4.12
2019-05-30T11:59:01.233Z,5.03
2019-05-30T12:01:34.897Z,12.07
2019-05-30T12:04:08.727Z,2.50
2019-05-30T12:06:42.794Z,4.67
2019-05-30T12:09:16.616Z,5.05
2019-05-30T12:11:50.998Z,4.53
2019-05-30T12:14:24.861Z,4.53
2019-05-30T12:16:59.427Z,3.35
2019-05-30T12:19:33.268Z,5.05
2019-05-30T12:22:07.075Z,4.67
2019-05-30T12:24:40.901Z,11.75
2019-05-30T12:27:14.738Z,6.70
2019-05-30T12:29:49.499Z,6.22
2019-05-30T12:32:23.281Z,5.60
2019-05-30T12:34:58.328Z,4.92
2019-05-30T12:37:32.616Z,4.17
2019-05-30T12:40:14.595Z,4.42
2019-05-30T12:42:49.225Z,5.62
2019-05-30T12:45:23.357Z,6.05
2019-05-30T12:47:57.147Z,8.03
2019-05-30T12:50:31.006Z,5.03
2019-05-30T12:53:05.976Z,5.75
2019-05-30T12:55:39.835Z,5.70
2019-05-30T12:58:14.109Z,7.33
2019-05-30T13:00:48.561Z,6.45
2019-05-30T13:03:22.347Z,4.28
2019-05-30T13:05:57.062Z,9.90
2019-05-30T13:08:30.904Z,3.17
2019-05-30T13:11:05.887Z,6.30
2019-05-30T13:13:40.690Z,7.75
2019-05-30T13:16:16.118Z,3.67
2019-05-30T13:18:49.910Z,9.78
2019-05-30T13:21:23.843Z,10.30
2019-05-30T13:23:57.756Z,7.50
2019-05-30T13:26:32.104Z,7.67
2019-05-30T13:29:06.624Z,8.05
2019-05-30T13:31:42.589Z,11.28
2019-05-30T13:34:16.476Z,17.55
2019-05-30T13:36:50.744Z,7.45
2019-05-30T13:39:24.517Z,7.87
2019-05-30T13:42:01.583Z,4.30
2019-05-30T13:44:35.933Z,10.28
2019-05-30T13:47:10.729Z,4.87
2019-05-30T13:49:44.470Z,10.93
2019-05-30T13:52:18.478Z,16.95
2019-05-30T13:54:52.218Z,12.33
2019-05-30T13:57:26.251Z,9.60
2019-05-30T14:00:01.895Z,6.22
2019-05-30T14:02:38.597Z,4.35
2019-05-30T14:05:14.574Z,5.10
2019-05-30T14:07:49.027Z,8.60
2019-05-30T14:10:23.381Z,6.97
2019-05-30T14:12:57.986Z,7.17
2019-05-30T14:15:32.150Z,4.65
2019-05-30T14:18:07.278Z,1.95
2019-05-30T14:20:41.068Z,7.95
2019-05-30T14:23:14.897Z,12.88
2019-05-30T14:25:49.339Z,12.15
2019-05-30T14:28:24.300Z,8.55
2019-05-30T14:30:58.198Z,14.80
2019-05-30T14:33:32.340Z,6.65
2019-05-30T14:36:10.215Z,4.15
2019-05-30T14:38:55.007Z,7.87
2019-05-30T14:41:18.918Z,5.53
2019-05-30T14:43:54.245Z,3.95
2019-05-30T14:46:28.048Z,9.43
2019-05-30T14:49:01.874Z,3.45
2019-05-30T14:51:35.849Z,3.30
2019-05-30T14:54:10.997Z,3.10
2019-05-30T14:56:45.089Z,7.05
2019-05-30T14:59:18.959Z,4.78
2019-05-30T15:01:52.952Z,4.95
2019-05-30T15:04:26.801Z,5.10
2019-05-30T15:07:00.687Z,5.47
2019-05-30T15:09:35.052Z,2.83
2019-05-30T15:12:10.555Z,6.00
2019-05-30T15:14:45.278Z,5.10
2019-05-30T15:17:19.040Z,7.40
2019-05-30T15:19:52.935Z,5.08
2019-05-30T15:22:26.758Z,6.03
2019-05-30T15:25:00.605Z,4.50
2019-05-30T15:27:34.385Z,7.55
2019-05-30T15:30:10.816Z,6.03
2019-05-30T15:32:44.475Z,9.65
2019-05-30T15:35:19.124Z,9.40
2019-05-30T15:37:53.178Z,6.47
2019-05-30T15:40:29.127Z,10.03
2019-05-30T15:43:02.828Z,4.33
2019-05-30T15:45:36.613Z,5.75
2019-05-30T15:48:10.428Z,3.95
2019-05-30T15:50:44.459Z,5.35
2019-05-30T15:53:19.266Z,5.65
2019-05-30T15:55:53.075Z,7.30
2019-05-30T15:58:26.835Z,5.12
2019-05-30T16:01:00.789Z,8.10
2019-05-30T16:03:34.605Z,9.70
2019-05-30T16:06:08.385Z,5.78
2019-05-30T16:08:45.415Z,9.63
2019-05-30T16:11:19.099Z,11.22
2019-05-30T16:13:52.983Z,8.70
2019-05-30T16:16:39.666Z,11.45
2019-05-30T16:19:16.387Z,11.12
2019-05-30T16:21:37.860Z,7.50
2019-05-30T16:24:12.358Z,10.53
2019-05-30T16:26:46.229Z,7.37
2019-05-30T16:29:20.040Z,5.50
2019-05-30T16:31:53.750Z,7.03
2019-05-30T16:34:27.523Z,14.18
2019-05-30T16:37:01.274Z,12.85
2019-05-30T16:39:35.048Z,15.28
2019-05-30T16:42:08.937Z,22.25
2019-05-30T16:44:42.760Z,23.02
2019-05-30T16:47:16.629Z,28.15
2019-05-30T16:49:50.388Z,25.65
2019-05-30T16:52:24.147Z,23.32
2019-05-30T16:54:57.967Z,19.27
2019-05-30T16:57:31.840Z,15.53
2019-05-30T17:00:10.381Z,15.83
2019-05-30T17:02:45.322Z,20.55
2019-05-30T17:05:19.906Z,31.80
2019-05-30T17:07:54.130Z,22.00
2019-05-30T17:10:32.680Z,18.20
2019-05-30T17:13:05.094Z,15.35
2019-05-30T17:15:44.197Z,14.15
2019-05-30T17:18:20.338Z,19.05
2019-05-30T17:20:53.969Z,16.45
2019-05-30T17:23:27.857Z,15.00
2019-05-30T17:26:08.326Z,14.50
2019-05-30T17:28:44.048Z,14.95
2019-05-30T17:31:22.222Z,15.15
2019-05-30T17:33:57.156Z,13.28
2019-05-30T17:36:32.443Z,19.20
2019-05-30T17:39:13.002Z,17.02
2019-05-30T17:41:47.027Z,15.83
2019-05-30T17:44:22.920Z,19.92
2019-05-30T17:46:56.727Z,19.37
2019-05-30T17:49:30.511Z,18.17
2019-05-30T17:52:05.409Z,23.90
2019-05-30T17:54:39.051Z,27.93
2019-05-30T17:57:13.604Z,21.35
2019-05-30T17:59:47.283Z,27.90
2019-05-30T18:02:21.241Z,19.90
2019-05-30T18:04:56.092Z,20.15
2019-05-30T18:07:31.130Z,17.32
2019-05-30T18:10:09.636Z,34.55
2019-05-30T18:12:44.176Z,23.87
2019-05-30T18:15:18.813Z,23.67
2019-05-30T18:17:52.400Z,45.78
2019-05-30T18:20:27.590Z,35.98
2019-05-30T18:23:02.450Z,31.05
2019-05-30T18:25:38.100Z,32.00
2019-05-30T18:28:12.378Z,32.00
2019-05-30T18:30:46.195Z,26.35
2019-05-30T18:33:20.458Z,33.92
2019-05-30T18:35:55.530Z,30.85
2019-05-30T18:38:32.762Z,23.92
2019-05-30T18:41:11.766Z,20.92
2019-05-30T18:43:43.911Z,27.22
2019-05-30T18:46:18.583Z,19.62
2019-05-30T18:48:52.903Z,17.92
2019-05-30T18:51:26.641Z,25.35
2019-05-30T18:54:01.398Z,19.87
2019-05-30T18:56:36.945Z,20.52
2019-05-30T18:59:13.510Z,19.42
2019-05-30T19:01:48.330Z,21.68
2019-05-30T19:04:22.928Z,20.88
2019-05-30T19:06:56.948Z,26.45
2019-05-30T19:09:31.898Z,22.90
2019-05-30T19:12:07.848Z,23.12
2019-05-30T19:14:42.629Z,25.65
2019-05-30T19:17:16.460Z,27.77
2019-05-30T19:19:52.700Z,24.12
2019-05-30T19:22:28.401Z,21.17
2019-05-30T19:25:02.925Z,22.65
2019-05-30T19:27:38.503Z,20.40
2019-05-30T19:30:13.697Z,19.07
2019-05-30T19:32:47.434Z,20.65
2019-05-30T19:35:22.014Z,23.25
2019-05-30T19:37:56.233Z,18.95
2019-05-30T19:40:29.920Z,20.60
2019-05-30T19:43:04.016Z,16.20
2019-05-30T19:45:39.912Z,17.42
2019-05-30T19:48:13.713Z,14.45
2019-05-30T19:50:47.484Z,14.78
2019-05-30T19:53:21.357Z,13.40
2019-05-30T19:55:55.182Z,14.73
2019-05-30T19:58:31.432Z,19.12
2019-05-30T20:01:07.179Z,15.95
2019-05-30T20:03:46.736Z,14.93
2019-05-30T20:06:18.550Z,15.08
2019-05-30T20:08:55.671Z,14.30
2019-05-30T20:11:29.041Z,16.35
2019-05-30T20:14:03.042Z,18.95
2019-05-30T20:16:37.870Z,17.98
2019-05-30T20:19:11.726Z,15.00
2019-05-30T20:21:45.930Z,19.30
2019-05-30T20:24:19.840Z,17.77
2019-05-30T20:26:54.140Z,14.25
2019-05-30T20:29:28.069Z,16.15
2019-05-30T20:32:02.356Z,21.68
2019-05-30T20:34:36.747Z,17.23
2019-05-30T20:37:10.861Z,19.90
2019-05-30T20:39:44.584Z,18.67
2019-05-30T20:42:19.799Z,17.25
2019-05-30T20:44:53.716Z,17.35
2019-05-30T20:47:27.507Z,22.48
2019-05-30T20:50:01.216Z,20.12
2019-05-30T20:52:38.735Z,21.62
2019-05-30T20:55:10.777Z,22.80
2019-05-30T20:57:44.862Z,23.73
2019-05-30T21:00:20.824Z,27.17
2019-05-30T21:02:56.241Z,23.57
2019-05-30T21:05:30.351Z,22.50
2019-05-30T21:08:06.138Z,24.45
2019-05-30T21:10:43.249Z,31.25
2019-05-30T21:13:18.752Z,27.77
2019-05-30T21:15:54.267Z,26.12
2019-05-30T21:18:29.520Z,35.08
2019-05-30T21:21:03.409Z,37.45
2019-05-30T21:23:38.239Z,31.97
2019-05-30T21:26:12.009Z,25.82
2019-05-30T21:28:47.135Z,31.77
2019-05-30T21:31:24.499Z,33.53
2019-05-30T21:33:59.035Z,29.10
2019-05-30T21:36:32.776Z,31.37
2019-05-30T21:39:09.889Z,29.40
2019-05-30T21:41:44.535Z,31.15
2019-05-30T21:44:19.928Z,31.10
2019-05-30T21:46:54.374Z,29.15
2019-05-30T21:49:28.392Z,32.00
2019-05-30T21:52:02.585Z,26.10
2019-05-30T21:54:36.355Z,32.73
2019-05-30T21:57:10.216Z,30.08
2019-05-30T21:59:44.311Z,33.65
2019-05-30T22:02:18.599Z,27.45
2019-05-30T22:04:52.272Z,30.45
2019-05-30T22:07:26.101Z,29.18
2019-05-30T22:09:59.871Z,28.23
2019-05-30T22:12:33.576Z,34.85
2019-05-30T22:15:08.071Z,26.93
2019-05-30T22:17:45.683Z,26.62
2019-05-30T22:20:24.547Z,25.95
2019-05-30T22:22:58.859Z,26.90
2019-05-30T22:25:32.746Z,28.77
2019-05-30T22:28:07.066Z,25.97
2019-05-30T22:30:42.328Z,23.25
2019-05-30T22:33:16.937Z,24.90
2019-05-30T22:35:51.439Z,19.82
2019-05-30T22:38:38.252Z,22.37
2019-05-30T22:41:13.888Z,24.40
2019-05-30T22:43:48.261Z,30.90
2019-05-30T22:46:21.982Z,20.30
2019-05-30T22:48:56.895Z,21.37
2019-05-30T22:51:31.009Z,20.95
2019-05-30T22:54:05.075Z,23.30
2019-05-30T22:56:38.958Z,27.37
2019-05-30T22:59:15.518Z,27.35
2019-05-30T23:01:51.876Z,24.02
2019-05-30T23:04:25.189Z,22.13
2019-05-30T23:06:58.948Z,20.92
2019-05-30T23:09:32.793Z,21.10
2019-05-30T23:12:06.585Z,20.30
2019-05-30T23:14:41.032Z,18.40
2019-05-30T23:17:15.206Z,21.52
2019-05-30T23:19:50.849Z,22.70
2019-05-30T23:22:24.698Z,22.35
2019-05-30T23:24:59.001Z,19.00
2019-05-30T23:31:22.847Z,20.32
2019-05-30T23:33:56.584Z,18.35
2019-05-30T23:36:30.396Z,21.80
2019-05-30T23:39:05.071Z,20.10
2019-05-30T23:41:38.852Z,19.23
2019-05-30T23:44:12.929Z,21.48
2019-05-30T23:46:47.063Z,19.73
2019-05-30T23:49:21.254Z,19.27
2019-05-30T23:51:56.611Z,16.97
2019-05-30T23:54:30.421Z,18.48
2019-05-30T23:57:04.249Z,18.80
2019-05-30T23:59:37.916Z,19.15
